Time,TemperatureF,DewpointF,PressureIn,WindDirection,WindDirectionDegrees,WindSpeedMPH,WindSpeedGustMPH,Humidity,HourlyPrecipIn,Conditions,Clouds,dailyrainin,SoftwareType,DateUTC
2013-06-07 00:03:00,39.3,37.5,28.03,East,88,0.0,0.0,93,0.00,,---,0.00,VWS V14.01,2013-06-07 05:03:00,
2013-06-07 00:08:00,39.1,37.5,28.03,East,88,0.0,0.0,94,0.00,,---,0.00,VWS V14.01,2013-06-07 05:08:00,
2013-06-07 00:13:00,38.9,37.3,28.03,East,88,0.0,0.0,94,0.00,,---,0.00,VWS V14.01,2013-06-07 05:13:00,
2013-06-07 00:18:00,38.7,37.1,28.03,East,88,0.0,0.0,94,0.00,,---,0.00,VWS V14.01,2013-06-07 05:18:00,
2013-06-07 00:23:00,38.5,36.9,28.03,East,88,0.0,0.0,94,0.00,,---,0.00,VWS V14.01,2013-06-07 05:23:00,
2013-06-07 00:28:00,38.3,36.7,28.03,East,88,0.0,0.0,94,0.00,,---,0.00,VWS V14.01,2013-06-07 05:28:00,
2013-06-07 00:33:00,38.0,36.4,28.03,East,88,0.0,0.0,94,0.00,,---,0.00,VWS V14.01,2013-06-07 05:33:00,
2013-06-07 00:38:00,37.7,36.1,28.03,East,88,0.0,0.0,94,0.00,,---,0.00,VWS V14.01,2013-06-07 05:38:00,
2013-06-07 00:43:00,37.6,36.0,28.03,East,88,0.0,0.0,94,0.00,,---,0.00,VWS V14.01,2013-06-07 05:43:00,
2013-06-07 00:49:00,37.4,35.8,28.03,East,88,0.0,0.0,94,0.00,,---,0.00,VWS V14.01,2013-06-07 05:49:00,
2013-06-07 00:54:00,37.3,35.7,28.03,East,88,0.0,0.0,94,0.00,,---,0.00,VWS V14.01,2013-06-07 05:54:00,
2013-06-07 00:59:00,37.1,35.5,28.03,East,88,0.0,0.0,94,0.00,,---,0.00,VWS V14.01,2013-06-07 05:59:00,
2013-06-07 01:04:00,37.0,35.7,28.03,East,88,0.0,0.0,95,0.00,,---,0.00,VWS V14.01,2013-06-07 06:04:00,
2013-06-07 01:09:00,36.9,35.3,28.03,East,88,0.0,0.0,94,0.00,,---,0.00,VWS V14.01,2013-06-07 06:09:00,
2013-06-07 01:14:00,36.8,35.5,28.03,East,88,0.0,0.0,95,0.00,,---,0.00,VWS V14.01,2013-06-07 06:14:00,
2013-06-07 01:19:00,36.6,35.3,28.02,East,88,0.0,0.0,95,0.00,,---,0.00,VWS V14.01,2013-06-07 06:19:00,
2013-06-07 01:25:00,36.5,36.5,28.02,East,88,0.0,0.0,100,0.00,,---,0.00,VWS V14.01,2013-06-07 06:25:00,
2013-06-07 01:30:00,36.6,35.3,28.02,East,88,0.0,0.0,95,0.00,,---,0.00,VWS V14.01,2013-06-07 06:30:00,
2013-06-07 01:35:00,36.4,35.1,28.02,East,88,0.0,0.0,95,0.00,,---,0.00,VWS V14.01,2013-06-07 06:35:00,
2013-06-07 01:40:00,36.2,34.9,28.02,East,88,0.0,0.0,95,0.00,,---,0.00,VWS V14.01,2013-06-07 06:40:00,
2013-06-07 01:45:00,36.0,34.7,28.02,East,88,0.0,0.0,95,0.00,,---,0.00,VWS V14.01,2013-06-07 06:45:00,
2013-06-07 01:50:00,35.9,34.6,28.02,East,88,0.0,0.0,95,0.00,,---,0.00,VWS V14.01,2013-06-07 06:50:00,
2013-06-07 01:55:00,35.8,34.5,28.02,East,88,0.0,0.0,95,0.00,,---,0.00,VWS V14.01,2013-06-07 06:55:00,
2013-06-07 02:00:00,35.9,34.6,28.02,East,88,0.0,0.0,95,0.00,,---,0.00,VWS V14.01,2013-06-07 07:00:00,
2013-06-07 02:05:00,35.8,34.5,28.01,East,88,0.0,0.0,95,0.00,,---,0.00,VWS V14.01,2013-06-07 07:05:00,
2013-06-07 02:10:00,35.6,34.3,28.01,East,88,0.0,0.0,95,0.00,,---,0.00,VWS V14.01,2013-06-07 07:10:00,
2013-06-07 02:15:00,35.6,34.3,28.01,East,88,0.0,0.0,95,0.00,,---,0.00,VWS V14.01,2013-06-07 07:15:00,
2013-06-07 02:20:00,35.5,34.2,28.01,East,88,0.0,0.0,95,0.00,,---,0.00,VWS V14.01,2013-06-07 07:20:00,
2013-06-07 02:25:00,35.5,34.2,28.01,East,88,0.0,0.0,95,0.00,,---,0.00,VWS V14.01,2013-06-07 07:25:00,
2013-06-07 02:30:00,35.5,34.2,28.01,East,88,0.0,0.0,95,0.00,,---,0.00,VWS V14.01,2013-06-07 07:30:00,
2013-06-07 02:36:00,35.4,34.1,28.01,East,88,0.0,0.0,95,0.00,,---,0.00,VWS V14.01,2013-06-07 07:36:00,
2013-06-07 02:41:00,35.0,33.7,28.01,East,88,0.0,0.0,95,0.00,,---,0.00,VWS V14.01,2013-06-07 07:41:00,
2013-06-07 02:46:00,34.7,33.4,28.01,East,88,0.0,0.0,95,0.00,,---,0.00,VWS V14.01,2013-06-07 07:46:00,
2013-06-07 02:51:00,34.8,33.5,28.01,East,88,0.0,0.0,95,0.00,,---,0.00,VWS V14.01,2013-06-07 07:51:00,
2013-06-07 02:57:00,34.7,33.4,28.01,East,88,0.0,0.0,95,0.00,,---,0.00,VWS V14.01,2013-06-07 07:57:00,
2013-06-07 03:02:00,34.4,33.1,28.01,East,88,0.0,0.0,95,0.00,,---,0.00,VWS V14.01,2013-06-07 08:02:00,
2013-06-07 03:07:00,34.4,33.1,28.01,East,88,0.0,0.0,95,0.00,,---,0.00,VWS V14.01,2013-06-07 08:07:00,
2013-06-07 03:12:00,34.4,33.1,28.01,East,88,0.0,0.0,95,0.00,,---,0.00,VWS V14.01,2013-06-07 08:12:00,
2013-06-07 03:17:00,34.4,33.1,28.01,East,88,0.0,0.0,95,0.00,,---,0.00,VWS V14.01,2013-06-07 08:17:00,
2013-06-07 03:22:00,34.3,33.3,28.01,East,88,0.0,0.0,96,0.00,,---,0.00,VWS V14.01,2013-06-07 08:22:00,
2013-06-07 03:27:00,34.1,33.1,28.01,East,88,0.0,0.0,96,0.00,,---,0.00,VWS V14.01,2013-06-07 08:27:00,
2013-06-07 03:32:00,33.9,32.6,28.01,East,88,0.0,0.0,95,0.00,,---,0.00,VWS V14.01,2013-06-07 08:32:00,
2013-06-07 03:37:00,33.6,32.6,28.01,East,88,0.0,0.0,96,0.00,,---,0.00,VWS V14.01,2013-06-07 08:37:00,
2013-06-07 03:42:00,33.6,32.3,28.01,East,88,0.0,0.0,95,0.00,,---,0.00,VWS V14.01,2013-06-07 08:42:00,
2013-06-07 03:47:00,33.4,32.1,28.01,East,88,0.0,0.0,95,0.00,,---,0.00,VWS V14.01,2013-06-07 08:47:00,
2013-06-07 03:52:00,33.4,32.1,28.01,East,88,0.0,0.0,95,0.00,,---,0.00,VWS V14.01,2013-06-07 08:52:00,
2013-06-07 03:58:00,33.3,32.3,28.01,East,88,0.0,0.0,96,0.00,,---,0.00,VWS V14.01,2013-06-07 08:58:00,
2013-06-07 04:03:00,33.3,32.3,28.01,East,88,0.0,0.0,96,0.00,,---,0.00,VWS V14.01,2013-06-07 09:03:00,
2013-06-07 04:08:00,33.2,32.2,28.01,East,88,0.0,0.0,96,0.00,,---,0.00,VWS V14.01,2013-06-07 09:08:00,
2013-06-07 04:13:00,33.2,32.2,28.01,East,88,0.0,0.0,96,0.00,,---,0.00,VWS V14.01,2013-06-07 09:13:00,
2013-06-07 04:18:00,33.2,32.2,28.01,East,88,0.0,0.0,96,0.00,,---,0.00,VWS V14.01,2013-06-07 09:18:00,
2013-06-07 04:23:00,33.2,32.2,28.01,East,88,0.0,0.0,96,0.00,,---,0.00,VWS V14.01,2013-06-07 09:23:00,
2013-06-07 04:28:00,33.1,32.1,28.01,East,88,0.0,0.0,96,0.00,,---,0.00,VWS V14.01,2013-06-07 09:28:00,
2013-06-07 04:33:00,33.0,32.0,28.01,East,88,0.0,0.0,96,0.00,,---,0.00,VWS V14.01,2013-06-07 09:33:00,
2013-06-07 04:38:00,33.3,32.3,28.01,East,88,0.0,0.0,96,0.00,,---,0.00,VWS V14.01,2013-06-07 09:38:00,
2013-06-07 04:44:00,33.3,32.3,28.01,East,88,0.0,0.0,96,0.00,,---,0.00,VWS V14.01,2013-06-07 09:44:00,
2013-06-07 04:49:00,33.1,32.1,28.01,East,88,0.0,0.0,96,0.00,,---,0.00,VWS V14.01,2013-06-07 09:49:00,
2013-06-07 04:54:00,33.0,32.0,28.01,East,88,0.0,0.0,96,0.00,,---,0.00,VWS V14.01,2013-06-07 09:54:00,
2013-06-07 04:59:00,33.1,32.1,28.01,East,88,0.0,0.0,96,0.00,,---,0.00,VWS V14.01,2013-06-07 09:59:00,
2013-06-07 05:04:00,33.0,32.0,28.01,East,88,0.0,0.0,96,0.00,,---,0.00,VWS V14.01,2013-06-07 10:04:00,
2013-06-07 05:09:00,33.0,32.0,28.01,East,88,0.0,0.0,96,0.00,,---,0.00,VWS V14.01,2013-06-07 10:09:00,
2013-06-07 05:14:00,33.1,32.1,28.01,East,88,0.0,0.0,96,0.00,,---,0.00,VWS V14.01,2013-06-07 10:14:00,
2013-06-07 05:19:00,33.1,32.1,28.01,East,88,0.0,0.0,96,0.00,,---,0.00,VWS V14.01,2013-06-07 10:19:00,
2013-06-07 05:24:00,33.2,32.2,28.01,East,88,0.0,0.0,96,0.00,,---,0.00,VWS V14.01,2013-06-07 10:24:00,
2013-06-07 05:29:00,33.2,32.2,28.01,East,88,0.0,0.0,96,0.00,,---,0.00,VWS V14.01,2013-06-07 10:29:00,
2013-06-07 05:35:00,33.1,32.1,28.01,East,88,0.0,0.0,96,0.00,,---,0.00,VWS V14.01,2013-06-07 10:35:00,
2013-06-07 05:40:00,33.2,32.2,28.01,East,88,0.0,0.0,96,0.00,,---,0.00,VWS V14.01,2013-06-07 10:40:00,
2013-06-07 05:45:00,33.4,32.4,28.01,East,88,0.0,0.0,96,0.00,,---,0.00,VWS V14.01,2013-06-07 10:45:00,
2013-06-07 05:50:00,33.7,32.7,28.01,East,88,0.0,0.0,96,0.00,,---,0.00,VWS V14.01,2013-06-07 10:50:00,
2013-06-07 05:55:00,34.1,33.1,28.01,East,88,0.0,0.0,96,0.00,,---,0.00,VWS V14.01,2013-06-07 10:55:00,
2013-06-07 06:00:00,35.0,34.0,28.02,East,88,0.0,0.0,96,0.00,,---,0.00,VWS V14.01,2013-06-07 11:00:00,
2013-06-07 06:06:00,35.5,34.5,28.02,East,88,0.0,0.0,96,0.00,,---,0.00,VWS V14.01,2013-06-07 11:06:00,
2013-06-07 06:11:00,35.9,34.9,28.02,East,88,0.0,0.0,96,0.00,,---,0.00,VWS V14.01,2013-06-07 11:11:00,
2013-06-07 06:16:00,36.4,35.6,28.02,East,88,0.0,0.0,97,0.00,,---,0.00,VWS V14.01,2013-06-07 11:16:00,
2013-06-07 06:21:00,36.8,35.8,28.02,East,88,0.0,0.0,96,0.00,,---,0.00,VWS V14.01,2013-06-07 11:21:00,
2013-06-07 06:26:00,37.3,36.5,28.02,East,88,0.0,0.0,97,0.00,,---,0.00,VWS V14.01,2013-06-07 11:26:00,
2013-06-07 06:31:00,38.1,37.3,28.02,East,88,0.0,0.0,97,0.00,,---,0.00,VWS V14.01,2013-06-07 11:31:00,
2013-06-07 06:36:00,39.0,38.2,28.02,East,88,0.0,0.0,97,0.00,,---,0.00,VWS V14.01,2013-06-07 11:36:00,
2013-06-07 06:41:00,40.0,39.2,28.02,East,88,0.0,0.0,97,0.00,,---,0.00,VWS V14.01,2013-06-07 11:41:00,
2013-06-07 06:46:00,40.9,40.1,28.03,East,88,0.0,0.0,97,0.00,,---,0.00,VWS V14.01,2013-06-07 11:46:00,
2013-06-07 06:52:00,41.6,40.8,28.03,East,88,0.0,0.0,97,0.00,,---,0.00,VWS V14.01,2013-06-07 11:52:00,
2013-06-07 06:57:00,42.0,41.2,28.03,East,88,0.0,0.0,97,0.00,,---,0.00,VWS V14.01,2013-06-07 11:57:00,
2013-06-07 07:02:00,42.8,42.0,28.03,East,88,0.0,0.0,97,0.00,,---,0.00,VWS V14.01,2013-06-07 12:02:00,
2013-06-07 07:07:00,43.9,43.1,28.03,East,88,0.0,0.0,97,0.00,,---,0.00,VWS V14.01,2013-06-07 12:07:00,
2013-06-07 07:12:00,45.2,44.4,28.03,East,88,0.0,0.0,97,0.00,,---,0.00,VWS V14.01,2013-06-07 12:12:00,
2013-06-07 07:17:00,46.1,45.3,28.03,East,88,0.0,0.0,97,0.00,,---,0.00,VWS V14.01,2013-06-07 12:17:00,
2013-06-07 07:23:00,47.0,46.2,28.03,East,88,0.0,0.0,97,0.00,,---,0.00,VWS V14.01,2013-06-07 12:23:00,
2013-06-07 07:28:00,47.6,47.1,28.03,East,88,0.0,0.0,98,0.00,,---,0.00,VWS V14.01,2013-06-07 12:28:00,
2013-06-07 07:33:00,47.9,47.4,28.03,East,88,0.0,0.0,98,0.00,,---,0.00,VWS V14.01,2013-06-07 12:33:00,
2013-06-07 07:38:00,48.8,48.0,28.03,East,88,0.0,0.0,97,0.00,,---,0.00,VWS V14.01,2013-06-07 12:38:00,
2013-06-07 07:43:00,49.5,48.7,28.03,NNW,334,1.0,5.0,97,0.00,,---,0.00,VWS V14.01,2013-06-07 12:43:00,
2013-06-07 07:48:00,50.7,48.2,28.03,NNW,338,0.0,1.0,91,0.00,,---,0.00,VWS V14.01,2013-06-07 12:48:00,
2013-06-07 07:53:00,51.4,46.7,28.03,NNW,338,0.0,1.0,84,0.00,,---,0.00,VWS V14.01,2013-06-07 12:53:00,
2013-06-07 07:58:00,52.1,46.1,28.03,NNW,338,0.0,0.0,80,0.00,,---,0.00,VWS V14.01,2013-06-07 12:58:00,
2013-06-07 08:03:00,52.8,45.8,28.03,NNW,336,0.0,0.0,77,0.00,,---,0.00,VWS V14.01,2013-06-07 13:03:00,
2013-06-07 08:08:00,53.4,46.0,28.03,NNW,336,0.0,1.0,76,0.00,,---,0.00,VWS V14.01,2013-06-07 13:08:00,
2013-06-07 08:14:00,54.4,45.9,28.03,NNW,336,1.0,1.0,73,0.00,,---,0.00,VWS V14.01,2013-06-07 13:14:00,
2013-06-07 08:19:00,55.3,46.1,28.03,NNW,347,0.0,0.0,71,0.00,,---,0.00,VWS V14.01,2013-06-07 13:19:00,
2013-06-07 08:24:00,56.2,45.4,28.03,NNW,347,0.0,3.0,67,0.00,,---,0.00,VWS V14.01,2013-06-07 13:24:00,
2013-06-07 08:29:00,57.0,46.2,28.03,NNW,347,1.0,1.0,67,0.00,,---,0.00,VWS V14.01,2013-06-07 13:29:00,
2013-06-07 08:34:00,57.2,45.2,28.03,NNW,347,3.0,3.0,64,0.00,,---,0.00,VWS V14.01,2013-06-07 13:34:00,
2013-06-07 08:39:00,57.1,45.5,28.03,North,355,0.0,1.0,65,0.00,,---,0.00,VWS V14.01,2013-06-07 13:39:00,
2013-06-07 08:44:00,57.5,45.0,28.03,North,355,0.0,1.0,63,0.00,,---,0.00,VWS V14.01,2013-06-07 13:44:00,
2013-06-07 08:50:00,58.0,44.6,28.03,North,5,5.0,5.0,61,0.00,,---,0.00,VWS V14.01,2013-06-07 13:50:00,
2013-06-07 08:55:00,57.9,44.5,28.03,North,5,0.0,3.0,61,0.00,,---,0.00,VWS V14.01,2013-06-07 13:55:00,
2013-06-07 09:00:00,58.6,45.2,28.03,North,5,2.0,2.0,61,0.00,,---,0.00,VWS V14.01,2013-06-07 14:00:00,
2013-06-07 09:05:00,58.5,44.7,28.03,North,360,0.0,3.0,60,0.00,,---,0.00,VWS V14.01,2013-06-07 14:05:00,
2013-06-07 09:10:00,58.5,44.2,28.03,North,355,1.0,5.0,59,0.00,,---,0.00,VWS V14.01,2013-06-07 14:10:00,
2013-06-07 09:15:00,58.8,44.5,28.03,North,5,2.0,4.0,59,0.00,,---,0.00,VWS V14.01,2013-06-07 14:15:00,
2013-06-07 09:20:00,59.0,43.8,28.03,North,360,1.0,2.0,57,0.00,,---,0.00,VWS V14.01,2013-06-07 14:20:00,
2013-06-07 09:25:00,59.5,44.3,28.03,North,9,0.0,0.0,57,0.00,,---,0.00,VWS V14.01,2013-06-07 14:25:00,
2013-06-07 09:30:00,60.7,44.0,28.02,NNE,17,5.0,6.0,54,0.00,,---,0.00,VWS V14.01,2013-06-07 14:30:00,
2013-06-07 09:36:00,60.7,42.5,28.02,NE,41,1.0,3.0,51,0.00,,---,0.00,VWS V14.01,2013-06-07 14:36:00,
2013-06-07 09:41:00,60.4,42.7,28.02,ENE,70,0.0,4.0,52,0.00,,---,0.00,VWS V14.01,2013-06-07 14:41:00,
2013-06-07 09:46:00,61.4,43.6,28.02,ENE,71,3.0,3.0,52,0.00,,---,0.00,VWS V14.01,2013-06-07 14:46:00,
2013-06-07 09:52:00,61.3,43.0,28.02,South,182,3.0,3.0,51,0.00,,---,0.00,VWS V14.01,2013-06-07 14:52:00,
2013-06-07 09:57:00,61.4,39.9,28.02,SSE,162,0.0,2.0,45,0.00,,---,0.00,VWS V14.01,2013-06-07 14:57:00,
2013-06-07 10:02:00,61.4,39.3,28.02,South,169,2.0,4.0,44,0.00,,---,0.00,VWS V14.01,2013-06-07 15:02:00,
2013-06-07 10:07:00,62.2,40.0,28.02,South,188,4.0,5.0,44,0.00,,---,0.00,VWS V14.01,2013-06-07 15:07:00,
2013-06-07 10:12:00,62.5,39.7,28.02,East,85,3.0,3.0,43,0.00,,---,0.00,VWS V14.01,2013-06-07 15:12:00,
2013-06-07 10:17:00,63.4,39.9,28.01,ESE,117,0.0,3.0,42,0.00,,---,0.00,VWS V14.01,2013-06-07 15:17:00,
2013-06-07 10:22:00,63.8,39.7,28.01,SE,133,1.0,5.0,41,0.00,,---,0.00,VWS V14.01,2013-06-07 15:22:00,
2013-06-07 10:27:00,63.6,40.7,28.01,SSE,165,1.0,1.0,43,0.00,,---,0.00,VWS V14.01,2013-06-07 15:27:00,
2013-06-07 10:32:00,63.7,40.2,28.01,SSE,163,6.0,6.0,42,0.00,,---,0.00,VWS V14.01,2013-06-07 15:32:00,
2013-06-07 10:38:00,63.8,41.5,28.01,SSE,161,0.0,0.0,44,0.00,,---,0.00,VWS V14.01,2013-06-07 15:38:00,
2013-06-07 10:43:00,64.8,41.2,28.01,SSE,161,1.0,1.0,42,0.00,,---,0.00,VWS V14.01,2013-06-07 15:43:00,
2013-06-07 10:48:00,65.4,39.8,28.01,East,90,7.0,7.0,39,0.00,,---,0.00,VWS V14.01,2013-06-07 15:48:00,
2013-06-07 10:53:00,64.9,40.7,28.01,SSE,161,3.0,5.0,41,0.00,,---,0.00,VWS V14.01,2013-06-07 15:53:00,
2013-06-07 10:58:00,64.8,40.6,28.01,South,175,4.0,4.0,41,0.00,,---,0.00,VWS V14.01,2013-06-07 15:58:00,
2013-06-07 11:04:00,65.0,39.5,28.00,South,174,5.0,6.0,39,0.00,,---,0.00,VWS V14.01,2013-06-07 16:04:00,
2013-06-07 11:09:00,64.7,39.8,28.00,SE,124,1.0,3.0,40,0.00,,---,0.00,VWS V14.01,2013-06-07 16:09:00,
2013-06-07 11:14:00,65.0,40.1,28.00,SE,134,4.0,5.0,40,0.00,,---,0.00,VWS V14.01,2013-06-07 16:14:00,
2013-06-07 11:19:00,65.2,40.9,28.00,SE,140,0.0,2.0,41,0.00,,---,0.00,VWS V14.01,2013-06-07 16:19:00,
2013-06-07 11:24:00,64.9,39.4,28.00,ENE,74,4.0,5.0,39,0.00,,---,0.00,VWS V14.01,2013-06-07 16:24:00,
2013-06-07 11:29:00,65.6,40.7,28.00,South,179,2.0,3.0,40,0.00,,---,0.00,VWS V14.01,2013-06-07 16:29:00,
2013-06-07 11:34:00,66.3,39.3,28.00,SE,132,7.0,7.0,37,0.00,,---,0.00,VWS V14.01,2013-06-07 16:34:00,
2013-06-07 11:39:00,66.2,39.2,28.00,ENE,64,2.0,4.0,37,0.00,,---,0.00,VWS V14.01,2013-06-07 16:39:00,
2013-06-07 11:45:00,66.5,40.8,28.00,SSE,149,4.0,5.0,39,0.00,,---,0.00,VWS V14.01,2013-06-07 16:45:00,
2013-06-07 11:50:00,67.1,40.0,28.00,SSE,147,2.0,2.0,37,0.00,,---,0.00,VWS V14.01,2013-06-07 16:50:00,
2013-06-07 11:55:00,67.0,39.9,28.00,SSW,204,4.0,5.0,37,0.00,,---,0.00,VWS V14.01,2013-06-07 16:55:00,
2013-06-07 12:00:00,66.3,40.6,28.00,SE,142,2.0,2.0,39,0.00,,---,0.00,VWS V14.01,2013-06-07 17:00:00,
2013-06-07 12:05:00,67.2,40.1,27.99,South,170,8.0,8.0,37,0.00,,---,0.00,VWS V14.01,2013-06-07 17:05:00,
2013-06-07 12:10:00,66.9,39.1,27.99,South,188,1.0,5.0,36,0.00,,---,0.00,VWS V14.01,2013-06-07 17:10:00,
2013-06-07 12:15:00,66.9,39.1,27.99,SSW,194,1.0,2.0,36,0.00,,---,0.00,VWS V14.01,2013-06-07 17:15:00,
2013-06-07 12:20:00,66.8,38.3,27.99,ESE,121,7.0,7.0,35,0.00,,---,0.00,VWS V14.01,2013-06-07 17:20:00,
2013-06-07 12:25:00,67.1,38.6,27.99,East,87,6.0,9.0,35,0.00,,---,0.00,VWS V14.01,2013-06-07 17:25:00,
2013-06-07 12:30:00,67.5,37.4,27.98,SE,130,3.0,7.0,33,0.00,,---,0.00,VWS V14.01,2013-06-07 17:30:00,
2013-06-07 12:35:00,67.7,38.3,27.98,SE,146,1.0,10.0,34,0.00,,---,0.00,VWS V14.01,2013-06-07 17:35:00,
2013-06-07 12:41:00,68.0,38.6,27.98,SE,142,5.0,5.0,34,0.00,,---,0.00,VWS V14.01,2013-06-07 17:41:00,
2013-06-07 12:46:00,68.4,39.7,27.98,ESE,117,9.0,9.0,35,0.00,,---,0.00,VWS V14.01,2013-06-07 17:46:00,
2013-06-07 12:51:00,68.6,38.4,27.98,SW,217,5.0,5.0,33,0.00,,---,0.00,VWS V14.01,2013-06-07 17:51:00,
2013-06-07 12:56:00,68.7,37.7,27.98,SE,134,5.0,5.0,32,0.00,,---,0.00,VWS V14.01,2013-06-07 17:56:00,
2013-06-07 13:02:00,68.0,38.6,27.98,South,175,5.0,5.0,34,0.00,,---,0.00,VWS V14.01,2013-06-07 18:02:00,
2013-06-07 13:07:00,68.0,37.8,27.98,SE,134,3.0,6.0,33,0.00,,---,0.00,VWS V14.01,2013-06-07 18:07:00,
2013-06-07 13:12:00,68.5,38.3,27.98,SSW,201,2.0,5.0,33,0.00,,---,0.00,VWS V14.01,2013-06-07 18:12:00,
2013-06-07 13:17:00,69.5,38.4,27.98,SW,221,6.0,7.0,32,0.00,,---,0.00,VWS V14.01,2013-06-07 18:17:00,
2013-06-07 13:22:00,68.9,38.6,27.98,SSE,162,3.0,5.0,33,0.00,,---,0.00,VWS V14.01,2013-06-07 18:22:00,
2013-06-07 13:27:00,68.9,37.8,27.98,SSE,163,1.0,3.0,32,0.00,,---,0.00,VWS V14.01,2013-06-07 18:27:00,
2013-06-07 13:32:00,69.7,38.5,27.97,South,178,4.0,5.0,32,0.00,,---,0.00,VWS V14.01,2013-06-07 18:32:00,
2013-06-07 13:37:00,68.8,37.8,27.97,South,173,5.0,8.0,32,0.00,,---,0.00,VWS V14.01,2013-06-07 18:37:00,
2013-06-07 13:43:00,68.3,37.3,27.97,South,188,3.0,4.0,32,0.00,,---,0.00,VWS V14.01,2013-06-07 18:43:00,
2013-06-07 13:48:00,67.5,38.2,27.97,SE,130,7.0,8.0,34,0.00,,---,0.00,VWS V14.01,2013-06-07 18:48:00,
2013-06-07 13:53:00,67.7,39.1,27.97,South,173,3.0,9.0,35,0.00,,---,0.00,VWS V14.01,2013-06-07 18:53:00,
2013-06-07 13:58:00,67.2,36.4,27.97,SE,145,6.0,8.0,32,0.00,,---,0.00,VWS V14.01,2013-06-07 18:58:00,
2013-06-07 14:04:00,67.1,37.1,27.97,SSE,165,1.0,5.0,33,0.00,,---,0.00,VWS V14.01,2013-06-07 19:04:00,
2013-06-07 14:09:00,67.4,37.3,27.97,SSW,194,3.0,4.0,33,0.00,,---,0.00,VWS V14.01,2013-06-07 19:09:00,
2013-06-07 14:14:00,67.5,37.4,27.97,South,178,2.0,4.0,33,0.00,,---,0.00,VWS V14.01,2013-06-07 19:14:00,
2013-06-07 14:19:00,66.7,36.7,27.97,South,170,0.0,1.0,33,0.00,,---,0.00,VWS V14.01,2013-06-07 19:19:00,
2013-06-07 14:25:00,67.3,40.2,27.97,SSE,163,4.0,4.0,37,0.00,,---,0.00,VWS V14.01,2013-06-07 19:25:00,
2013-06-07 14:30:00,67.4,37.3,27.97,South,169,8.0,10.0,33,0.00,,---,0.00,VWS V14.01,2013-06-07 19:30:00,
2013-06-07 14:36:00,67.2,36.4,27.97,SE,142,2.0,7.0,32,0.00,,---,0.00,VWS V14.01,2013-06-07 19:36:00,
2013-06-07 14:41:00,67.1,37.8,27.97,SE,134,6.0,10.0,34,0.00,,---,0.00,VWS V14.01,2013-06-07 19:41:00,
2013-06-07 14:46:00,67.2,37.9,27.97,SSW,207,4.0,6.0,34,0.00,,---,0.00,VWS V14.01,2013-06-07 19:46:00,
2013-06-07 14:52:00,67.0,39.2,27.97,SSE,158,4.0,6.0,36,0.00,,---,0.00,VWS V14.01,2013-06-07 19:52:00,
2013-06-07 14:57:00,67.0,37.0,27.97,SSE,153,0.0,11.0,33,0.00,,---,0.00,VWS V14.01,2013-06-07 19:57:00,
2013-06-07 15:02:00,67.2,37.9,27.97,SE,142,6.0,9.0,34,0.00,,---,0.00,VWS V14.01,2013-06-07 20:02:00,
2013-06-07 15:07:00,67.6,37.5,27.97,SSW,194,4.0,4.0,33,0.00,,---,0.00,VWS V14.01,2013-06-07 20:07:00,
2013-06-07 15:12:00,68.0,37.8,27.97,SSE,167,8.0,8.0,33,0.00,,---,0.00,VWS V14.01,2013-06-07 20:12:00,
2013-06-07 15:17:00,68.3,38.1,27.97,SSE,147,3.0,3.0,33,0.00,,---,0.00,VWS V14.01,2013-06-07 20:17:00,
2013-06-07 15:22:00,68.3,38.1,27.97,South,169,4.0,6.0,33,0.00,,---,0.00,VWS V14.01,2013-06-07 20:22:00,
2013-06-07 15:27:00,68.1,38.7,27.97,SE,132,2.0,2.0,34,0.00,,---,0.00,VWS V14.01,2013-06-07 20:27:00,
2013-06-07 15:33:00,68.0,37.1,27.96,South,178,5.0,8.0,32,0.00,,---,0.00,VWS V14.01,2013-06-07 20:33:00,
2013-06-07 15:38:00,67.9,38.5,27.96,SE,143,9.0,9.0,34,0.00,,---,0.00,VWS V14.01,2013-06-07 20:38:00,
2013-06-07 15:43:00,67.4,38.8,27.96,SE,144,6.0,7.0,35,0.00,,---,0.00,VWS V14.01,2013-06-07 20:43:00,
2013-06-07 15:48:00,67.7,38.3,27.95,SSE,162,2.0,3.0,34,0.00,,---,0.00,VWS V14.01,2013-06-07 20:48:00,
2013-06-07 15:53:00,68.4,38.2,27.95,SSW,194,3.0,6.0,33,0.00,,---,0.00,VWS V14.01,2013-06-07 20:53:00,
2013-06-07 15:58:00,69.1,37.2,27.95,SE,146,0.0,6.0,31,0.00,,---,0.00,VWS V14.01,2013-06-07 20:58:00,
2013-06-07 16:03:00,68.9,37.0,27.95,SE,139,0.0,2.0,31,0.00,,---,0.00,VWS V14.01,2013-06-07 21:03:00,
2013-06-07 16:09:00,69.1,38.0,27.95,South,173,3.0,3.0,32,0.00,,---,0.00,VWS V14.01,2013-06-07 21:09:00,
2013-06-07 16:14:00,69.4,37.5,27.95,South,188,8.0,8.0,31,0.00,,---,0.00,VWS V14.01,2013-06-07 21:14:00,
2013-06-07 16:20:00,69.2,38.1,27.95,SSE,166,3.0,3.0,32,0.00,,---,0.00,VWS V14.01,2013-06-07 21:20:00,
2013-06-07 16:25:00,69.0,37.9,27.95,SSE,151,1.0,5.0,32,0.00,,---,0.00,VWS V14.01,2013-06-07 21:25:00,
2013-06-07 16:30:00,68.6,37.6,27.95,SE,142,8.0,8.0,32,0.00,,---,0.00,VWS V14.01,2013-06-07 21:30:00,
2013-06-07 16:35:00,67.4,34.9,27.95,ESE,107,0.0,8.0,30,0.00,,---,0.00,VWS V14.01,2013-06-07 21:35:00,
2013-06-07 16:40:00,67.0,37.7,27.95,South,176,5.0,8.0,34,0.00,,---,0.00,VWS V14.01,2013-06-07 21:40:00,
2013-06-07 16:45:00,67.0,36.2,27.95,South,190,4.0,9.0,32,0.00,,---,0.00,VWS V14.01,2013-06-07 21:45:00,
2013-06-07 16:50:00,67.1,37.1,27.95,SSE,167,2.0,3.0,33,0.00,,---,0.00,VWS V14.01,2013-06-07 21:50:00,
2013-06-07 16:55:00,67.3,36.5,27.95,SE,132,3.0,10.0,32,0.00,,---,0.00,VWS V14.01,2013-06-07 21:55:00,
2013-06-07 17:00:00,67.3,38.0,27.95,South,173,0.0,1.0,34,0.00,,---,0.00,VWS V14.01,2013-06-07 22:00:00,
2013-06-07 17:06:00,67.6,38.3,27.95,South,169,1.0,1.0,34,0.00,,---,0.00,VWS V14.01,2013-06-07 22:06:00,
2013-06-07 17:11:00,68.1,37.2,27.95,SSW,211,1.0,7.0,32,0.00,,---,0.00,VWS V14.01,2013-06-07 22:11:00,
2013-06-07 17:16:00,68.1,37.9,27.95,South,171,5.0,5.0,33,0.00,,---,0.00,VWS V14.01,2013-06-07 22:16:00,
2013-06-07 17:21:00,67.6,36.7,27.95,South,175,3.0,5.0,32,0.00,,---,0.00,VWS V14.01,2013-06-07 22:21:00,
2013-06-07 17:26:00,67.2,36.4,27.95,SSE,154,1.0,1.0,32,0.00,,---,0.00,VWS V14.01,2013-06-07 22:26:00,
2013-06-07 17:31:00,67.1,37.1,27.95,SSE,163,4.0,4.0,33,0.00,,---,0.00,VWS V14.01,2013-06-07 22:31:00,
2013-06-07 17:37:00,67.1,37.8,27.95,South,186,4.0,6.0,34,0.00,,---,0.00,VWS V14.01,2013-06-07 22:37:00,
2013-06-07 17:42:00,67.1,36.3,27.95,South,180,2.0,5.0,32,0.00,,---,0.00,VWS V14.01,2013-06-07 22:42:00,
2013-06-07 17:47:00,66.7,36.7,27.94,South,173,3.0,3.0,33,0.00,,---,0.00,VWS V14.01,2013-06-07 22:47:00,
2013-06-07 17:53:00,66.1,36.9,27.94,SSE,153,1.0,3.0,34,0.00,,---,0.00,VWS V14.01,2013-06-07 22:53:00,
2013-06-07 17:58:00,66.4,36.5,27.94,SW,236,1.0,2.0,33,0.00,,---,0.00,VWS V14.01,2013-06-07 22:58:00,
2013-06-07 18:03:00,66.6,35.8,27.94,SSE,153,3.0,6.0,32,0.00,,---,0.00,VWS V14.01,2013-06-07 23:03:00,
2013-06-07 18:08:00,66.4,37.2,27.94,SE,130,2.0,2.0,34,0.00,,---,0.00,VWS V14.01,2013-06-07 23:08:00,
2013-06-07 18:13:00,66.6,35.8,27.94,SSW,192,0.0,7.0,32,0.00,,---,0.00,VWS V14.01,2013-06-07 23:13:00,
2013-06-07 18:19:00,66.5,37.3,27.94,South,185,4.0,4.0,34,0.00,,---,0.00,VWS V14.01,2013-06-07 23:19:00,
2013-06-07 18:24:00,66.4,37.2,27.94,SSE,159,3.0,6.0,34,0.00,,---,0.00,VWS V14.01,2013-06-07 23:24:00,
2013-06-07 18:29:00,66.0,36.8,27.94,South,169,0.0,4.0,34,0.00,,---,0.00,VWS V14.01,2013-06-07 23:29:00,
2013-06-07 18:34:00,66.2,38.5,27.94,South,171,2.0,3.0,36,0.00,,---,0.00,VWS V14.01,2013-06-07 23:34:00,
2013-06-07 18:39:00,66.1,38.4,27.94,SSW,207,0.0,4.0,36,0.00,,---,0.00,VWS V14.01,2013-06-07 23:39:00,
2013-06-07 18:44:00,65.9,37.5,27.94,SSW,195,3.0,5.0,35,0.00,,---,0.00,VWS V14.01,2013-06-07 23:44:00,
2013-06-07 18:49:00,65.3,36.2,27.94,South,171,4.0,8.0,34,0.00,,---,0.00,VWS V14.01,2013-06-07 23:49:00,
2013-06-07 18:55:00,64.9,36.6,27.94,South,184,1.0,4.0,35,0.00,,---,0.00,VWS V14.01,2013-06-07 23:55:00,
2013-06-07 19:00:00,64.7,37.2,27.94,ESE,121,2.0,2.0,36,0.00,,---,0.00,VWS V14.01,2013-06-08 00:00:00,
2013-06-07 19:05:00,64.3,36.8,27.95,South,179,2.0,5.0,36,0.00,,---,0.00,VWS V14.01,2013-06-08 00:05:00,
2013-06-07 19:10:00,63.8,36.4,27.95,South,186,2.0,2.0,36,0.00,,---,0.00,VWS V14.01,2013-06-08 00:10:00,
2013-06-07 19:15:00,63.2,35.8,27.95,SSE,164,1.0,4.0,36,0.00,,---,0.00,VWS V14.01,2013-06-08 00:15:00,
2013-06-07 19:20:00,63.1,37.1,27.95,SSE,165,1.0,4.0,38,0.00,,---,0.00,VWS V14.01,2013-06-08 00:20:00,
2013-06-07 19:25:00,63.1,37.1,27.95,SSE,162,2.0,4.0,38,0.00,,---,0.00,VWS V14.01,2013-06-08 00:25:00,
2013-06-07 19:30:00,63.0,37.0,27.95,South,170,0.0,0.0,38,0.00,,---,0.00,VWS V14.01,2013-06-08 00:30:00,
2013-06-07 19:35:00,63.1,38.4,27.95,South,173,0.0,0.0,40,0.00,,---,0.00,VWS V14.01,2013-06-08 00:35:00,
2013-06-07 19:41:00,63.0,36.3,27.95,South,173,2.0,3.0,37,0.00,,---,0.00,VWS V14.01,2013-06-08 00:41:00,
2013-06-07 19:46:00,62.7,36.8,27.94,South,176,2.0,4.0,38,0.00,,---,0.00,VWS V14.01,2013-06-08 00:46:00,
2013-06-07 19:51:00,62.5,35.9,27.94,South,188,4.0,5.0,37,0.00,,---,0.00,VWS V14.01,2013-06-08 00:51:00,
2013-06-07 19:56:00,62.3,35.7,27.94,SSE,163,2.0,5.0,37,0.00,,---,0.00,VWS V14.01,2013-06-08 00:56:00,
2013-06-07 20:01:00,62.0,36.8,27.94,South,182,0.0,0.0,39,0.00,,---,0.00,VWS V14.01,2013-06-08 01:01:00,
2013-06-07 20:06:00,61.8,37.9,27.94,SSE,165,0.0,0.0,41,0.00,,---,0.00,VWS V14.01,2013-06-08 01:06:00,
2013-06-07 20:11:00,61.7,38.4,27.94,SSE,153,0.0,0.0,42,0.00,,---,0.00,VWS V14.01,2013-06-08 01:11:00,
2013-06-07 20:17:00,61.4,37.5,27.94,SSE,153,0.0,0.0,41,0.00,,---,0.00,VWS V14.01,2013-06-08 01:17:00,
2013-06-07 20:22:00,61.0,37.8,27.94,SSE,153,0.0,0.0,42,0.00,,---,0.00,VWS V14.01,2013-06-08 01:22:00,
2013-06-07 20:27:00,60.7,36.9,27.94,SSE,153,0.0,0.0,41,0.00,,---,0.00,VWS V14.01,2013-06-08 01:27:00,
2013-06-07 20:33:00,60.0,38.0,27.94,SSE,153,1.0,1.0,44,0.00,,---,0.00,VWS V14.01,2013-06-08 01:33:00,
2013-06-07 20:39:00,59.3,38.5,27.94,SSE,153,0.0,0.0,46,0.00,,---,0.00,VWS V14.01,2013-06-08 01:39:00,
2013-06-07 20:44:00,59.0,38.8,27.94,SSE,153,0.0,0.0,47,0.00,,---,0.00,VWS V14.01,2013-06-08 01:44:00,
2013-06-07 20:49:00,58.2,38.6,27.94,SSE,153,0.0,0.0,48,0.00,,---,0.00,VWS V14.01,2013-06-08 01:49:00,
2013-06-07 20:54:00,56.9,38.5,27.94,SSE,153,0.0,0.0,50,0.00,,---,0.00,VWS V14.01,2013-06-08 01:54:00,
2013-06-07 20:59:00,56.0,38.2,27.94,SSE,153,0.0,0.0,51,0.00,,---,0.00,VWS V14.01,2013-06-08 01:59:00,
2013-06-07 21:05:00,55.4,38.6,27.94,SSE,153,0.0,0.0,53,0.00,,---,0.00,VWS V14.01,2013-06-08 02:05:00,
2013-06-07 21:10:00,54.7,38.9,27.94,SSE,153,0.0,0.0,55,0.00,,---,0.00,VWS V14.01,2013-06-08 02:10:00,
2013-06-07 21:15:00,54.0,39.1,27.94,SSE,153,0.0,0.0,57,0.00,,---,0.00,VWS V14.01,2013-06-08 02:15:00,
2013-06-07 21:20:00,53.0,39.9,27.94,SSE,153,0.0,0.0,61,0.00,,---,0.00,VWS V14.01,2013-06-08 02:20:00,
2013-06-07 21:26:00,52.1,39.5,27.94,SSE,153,0.0,0.0,62,0.00,,---,0.00,VWS V14.01,2013-06-08 02:26:00,
2013-06-07 21:31:00,51.6,41.8,27.94,SSE,153,0.0,0.0,69,0.00,,---,0.00,VWS V14.01,2013-06-08 02:31:00,
2013-06-07 21:36:00,50.6,42.3,27.94,SSE,153,0.0,0.0,73,0.00,,---,0.00,VWS V14.01,2013-06-08 02:36:00,
2013-06-07 21:41:00,49.8,41.9,27.94,SSE,153,0.0,0.0,74,0.00,,---,0.00,VWS V14.01,2013-06-08 02:41:00,
2013-06-07 21:47:00,49.3,42.1,27.94,SSE,153,0.0,0.0,76,0.00,,---,0.00,VWS V14.01,2013-06-08 02:47:00,
2013-06-07 21:52:00,48.7,42.2,27.94,SSE,153,0.0,0.0,78,0.00,,---,0.00,VWS V14.01,2013-06-08 02:52:00,
2013-06-07 21:57:00,48.2,41.7,27.94,SSE,153,0.0,0.0,78,0.00,,---,0.00,VWS V14.01,2013-06-08 02:57:00,
2013-06-07 22:02:00,47.7,41.5,27.94,SSE,153,0.0,0.0,79,0.00,,---,0.00,VWS V14.01,2013-06-08 03:02:00,
2013-06-07 22:07:00,47.2,41.4,27.94,SSE,153,0.0,0.0,80,0.00,,---,0.00,VWS V14.01,2013-06-08 03:07:00,
2013-06-07 22:12:00,46.5,41.0,27.94,SSE,153,0.0,0.0,81,0.00,,---,0.00,VWS V14.01,2013-06-08 03:12:00,
2013-06-07 22:17:00,45.7,39.9,27.94,SSE,153,0.0,0.0,80,0.00,,---,0.00,VWS V14.01,2013-06-08 03:17:00,
2013-06-07 22:23:00,45.4,40.5,27.94,SSE,153,0.0,0.0,83,0.00,,---,0.00,VWS V14.01,2013-06-08 03:23:00,
2013-06-07 22:28:00,45.0,40.2,27.94,SSE,153,0.0,0.0,83,0.00,,---,0.00,VWS V14.01,2013-06-08 03:28:00,
2013-06-07 22:33:00,44.0,39.2,27.94,SSE,153,0.0,0.0,83,0.00,,---,0.00,VWS V14.01,2013-06-08 03:33:00,
2013-06-07 22:38:00,43.7,39.8,27.94,SSE,153,0.0,0.0,86,0.00,,---,0.00,VWS V14.01,2013-06-08 03:38:00,
2013-06-07 22:43:00,43.4,39.8,27.94,SSE,153,0.0,0.0,87,0.00,,---,0.00,VWS V14.01,2013-06-08 03:43:00,
2013-06-07 22:48:00,43.1,39.5,27.94,SSE,153,0.0,0.0,87,0.00,,---,0.00,VWS V14.01,2013-06-08 03:48:00,
2013-06-07 22:53:00,42.9,39.6,27.94,SSE,153,0.0,0.0,88,0.00,,---,0.00,VWS V14.01,2013-06-08 03:53:00,
2013-06-07 22:59:00,42.6,39.6,27.94,SSE,153,0.0,0.0,89,0.00,,---,0.00,VWS V14.01,2013-06-08 03:59:00,
2013-06-07 23:01:00,42.5,39.5,27.94,SSE,153,0.0,0.0,89,0.00,,---,0.00,VWS V14.01,2013-06-08 04:01:00,
2013-06-07 23:02:00,42.4,39.4,27.94,SSE,153,0.0,0.0,89,0.00,,---,0.00,VWS V14.01,2013-06-08 04:02:00,
2013-06-07 23:03:00,42.4,39.4,27.94,SSE,153,0.0,0.0,89,0.00,,---,0.00,VWS V14.01,2013-06-08 04:03:00,
2013-06-07 23:08:00,42.1,39.1,27.94,SSE,153,0.0,0.0,89,0.00,,---,0.00,VWS V14.01,2013-06-08 04:08:00,
2013-06-07 23:13:00,41.9,39.2,27.94,SSE,153,0.0,0.0,90,0.00,,---,0.00,VWS V14.01,2013-06-08 04:13:00,
2013-06-07 23:18:00,41.8,39.1,27.94,SSE,153,0.0,0.0,90,0.00,,---,0.00,VWS V14.01,2013-06-08 04:18:00,
2013-06-07 23:23:00,41.6,39.2,27.94,SSE,153,0.0,0.0,91,0.00,,---,0.00,VWS V14.01,2013-06-08 04:23:00,
2013-06-07 23:28:00,41.4,39.0,27.94,SSE,153,0.0,0.0,91,0.00,,---,0.00,VWS V14.01,2013-06-08 04:28:00,
2013-06-07 23:33:00,41.3,38.9,27.94,SSE,153,0.0,0.0,91,0.00,,---,0.00,VWS V14.01,2013-06-08 04:33:00,
2013-06-07 23:38:00,41.1,39.0,27.94,SSE,153,0.0,0.0,92,0.00,,---,0.00,VWS V14.01,2013-06-08 04:38:00,
2013-06-07 23:43:00,40.9,38.8,27.94,SSE,153,0.0,0.0,92,0.00,,---,0.00,VWS V14.01,2013-06-08 04:43:00,
2013-06-07 23:48:00,40.6,38.5,27.94,SSE,153,0.0,0.0,92,0.00,,---,0.00,VWS V14.01,2013-06-08 04:48:00,
2013-06-07 23:53:00,40.4,38.3,27.94,SSE,153,0.0,0.0,92,0.00,,---,0.00,VWS V14.01,2013-06-08 04:53:00,
2013-06-07 23:58:00,40.2,38.1,27.94,SSE,153,0.0,0.0,92,0.00,,---,0.00,VWS V14.01,2013-06-08 04:58:00,